createdAt,value
2019-03-31T00:01:40.624Z,22.67
2019-03-31T00:04:10.351Z,20.10
2019-03-31T00:06:39.805Z,20.33
2019-03-31T00:09:09.532Z,22.23
2019-03-31T00:11:39.053Z,22.50
2019-03-31T00:14:08.573Z,21.40
2019-03-31T00:16:38.221Z,21.27
2019-03-31T00:19:07.878Z,24.07
2019-03-31T00:21:37.384Z,22.20
2019-03-31T00:24:06.987Z,23.50
2019-03-31T00:26:36.706Z,21.57
2019-03-31T00:29:06.324Z,21.73
2019-03-31T00:31:36.029Z,21.60
2019-03-31T00:34:05.732Z,22.90
2019-03-31T00:36:35.312Z,24.53
2019-03-31T00:39:07.499Z,25.10
2019-03-31T00:41:37.035Z,22.17
2019-03-31T00:44:06.588Z,22.17
2019-03-31T00:46:36.207Z,23.97
2019-03-31T00:49:05.766Z,23.70
2019-03-31T00:51:35.374Z,25.47
2019-03-31T00:54:04.992Z,25.13
2019-03-31T00:56:34.679Z,28.90
2019-03-31T00:59:04.321Z,28.40
2019-03-31T01:01:42.539Z,27.37
2019-03-31T01:04:12.339Z,25.23
2019-03-31T01:06:42.106Z,26.23
2019-03-31T01:09:27.499Z,24.27
2019-03-31T01:11:57.461Z,29.30
2019-03-31T01:14:28.264Z,27.43
2019-03-31T01:16:58.106Z,26.67
2019-03-31T01:19:28.277Z,26.93
2019-03-31T01:21:57.985Z,27.43
2019-03-31T01:24:27.743Z,25.87
2019-03-31T01:26:57.508Z,27.43
2019-03-31T01:29:27.127Z,29.40
2019-03-31T01:31:56.989Z,28.77
2019-03-31T01:34:26.962Z,26.40
2019-03-31T01:36:56.553Z,28.27
2019-03-31T01:39:28.507Z,29.50
2019-03-31T01:41:58.033Z,26.73
2019-03-31T01:44:27.639Z,29.43
2019-03-31T01:46:57.258Z,27.70
2019-03-31T01:49:26.903Z,30.93
2019-03-31T01:51:56.568Z,30.30
2019-03-31T01:54:26.171Z,30.80
2019-03-31T01:56:55.875Z,31.30
2019-03-31T01:59:25.549Z,31.00
2019-03-31T02:02:04.078Z,30.33
2019-03-31T02:04:27.113Z,29.20
2019-03-31T02:06:56.674Z,29.23
2019-03-31T02:09:26.359Z,31.13
2019-03-31T02:11:55.892Z,30.40
2019-03-31T02:14:25.600Z,31.97
2019-03-31T02:16:55.310Z,29.97
2019-03-31T02:19:24.986Z,34.17
2019-03-31T02:21:54.461Z,34.63
2019-03-31T02:24:24.057Z,34.80
2019-03-31T02:26:53.589Z,36.90
2019-03-31T02:29:23.207Z,37.07
2019-03-31T02:31:52.835Z,36.27
2019-03-31T02:34:22.497Z,36.27
2019-03-31T02:36:52.079Z,39.13
2019-03-31T02:39:21.830Z,39.00
2019-03-31T02:41:51.435Z,38.67
2019-03-31T02:44:20.982Z,38.50
2019-03-31T02:46:50.543Z,38.67
2019-03-31T02:49:20.170Z,37.97
2019-03-31T02:51:49.862Z,35.70
2019-03-31T02:54:19.968Z,41.63
2019-03-31T02:56:50.355Z,40.63
2019-03-31T02:59:22.013Z,40.23
2019-03-31T03:01:54.505Z,44.93
2019-03-31T03:04:26.064Z,40.40
2019-03-31T03:06:56.526Z,43.63
2019-03-31T03:09:29.409Z,43.17
2019-03-31T03:12:01.103Z,44.87
2019-03-31T03:14:34.632Z,46.10
2019-03-31T03:17:04.272Z,43.57
2019-03-31T03:19:33.959Z,44.30
2019-03-31T03:22:03.743Z,43.03
2019-03-31T03:24:33.358Z,42.63
2019-03-31T03:27:02.963Z,44.87
2019-03-31T03:29:32.575Z,48.67
2019-03-31T03:32:02.201Z,42.83
2019-03-31T03:34:31.027Z,44.07
2019-03-31T03:37:00.661Z,45.37
2019-03-31T03:39:30.275Z,45.33
2019-03-31T03:41:59.935Z,45.97
2019-03-31T03:44:29.589Z,45.27
2019-03-31T03:46:59.134Z,43.43
2019-03-31T03:49:28.729Z,47.53
2019-03-31T03:51:58.477Z,44.57
2019-03-31T03:54:28.103Z,44.83
2019-03-31T03:56:57.778Z,42.33
2019-03-31T03:59:27.366Z,42.80
2019-03-31T04:01:56.961Z,44.43
2019-03-31T04:04:26.544Z,48.07
2019-03-31T04:06:56.095Z,47.90
2019-03-31T04:09:25.690Z,43.60
2019-03-31T04:11:55.379Z,47.97
2019-03-31T04:14:24.967Z,45.23
2019-03-31T04:16:54.512Z,46.13
2019-03-31T04:19:24.115Z,44.27
2019-03-31T04:21:53.728Z,47.93
2019-03-31T04:24:23.488Z,47.97
2019-03-31T04:26:53.205Z,46.10
2019-03-31T04:29:22.800Z,44.07
2019-03-31T04:31:52.315Z,47.00
2019-03-31T04:34:21.811Z,47.10
2019-03-31T04:36:51.453Z,46.13
2019-03-31T04:39:20.987Z,42.90
2019-03-31T04:41:50.621Z,46.40
2019-03-31T04:44:20.088Z,48.27
2019-03-31T04:46:49.660Z,41.57
2019-03-31T04:49:19.331Z,45.23
2019-03-31T04:51:48.902Z,48.30
2019-03-31T04:54:18.542Z,44.93
2019-03-31T04:56:48.098Z,48.30
2019-03-31T04:59:17.689Z,47.00
2019-03-31T05:01:47.249Z,46.70
2019-03-31T05:04:18.533Z,48.37
2019-03-31T05:06:48.036Z,46.93
2019-03-31T05:09:17.612Z,51.13
2019-03-31T05:11:47.088Z,51.03
2019-03-31T05:14:16.655Z,47.43
2019-03-31T05:16:46.339Z,50.00
2019-03-31T05:19:15.963Z,51.57
2019-03-31T05:21:45.440Z,52.90
2019-03-31T05:24:15.192Z,48.03
2019-03-31T05:26:44.708Z,50.73
2019-03-31T05:29:14.210Z,52.50
2019-03-31T05:31:43.818Z,50.47
2019-03-31T05:34:19.179Z,52.23
2019-03-31T05:36:44.751Z,53.40
2019-03-31T05:39:14.316Z,53.07
2019-03-31T05:41:43.968Z,51.30
2019-03-31T05:44:13.617Z,53.97
2019-03-31T05:46:43.142Z,52.90
2019-03-31T05:49:12.624Z,54.37
2019-03-31T05:51:42.253Z,54.87
2019-03-31T05:54:11.769Z,52.00
2019-03-31T05:56:41.693Z,49.57
2019-03-31T05:59:11.318Z,53.03
2019-03-31T06:01:41.030Z,55.70
2019-03-31T06:04:10.567Z,48.03
2019-03-31T06:06:40.029Z,51.90
2019-03-31T06:09:09.537Z,50.50
2019-03-31T06:11:39.857Z,50.30
2019-03-31T06:14:09.507Z,52.27
2019-03-31T06:16:39.156Z,50.53
2019-03-31T06:19:08.831Z,50.40
2019-03-31T06:21:38.370Z,54.43
2019-03-31T06:24:07.900Z,53.33
2019-03-31T06:26:37.527Z,59.67
2019-03-31T06:29:07.068Z,58.10
2019-03-31T06:31:36.703Z,61.40
2019-03-31T06:34:06.401Z,61.23
2019-03-31T06:36:36.195Z,59.83
2019-03-31T06:39:07.478Z,62.93
2019-03-31T06:41:37.108Z,64.60
2019-03-31T06:44:06.723Z,68.20
2019-03-31T06:46:36.275Z,61.70
2019-03-31T06:49:05.915Z,63.03
2019-03-31T06:51:35.607Z,63.67
2019-03-31T06:54:05.276Z,61.60
2019-03-31T06:56:34.869Z,66.07
2019-03-31T06:59:04.546Z,70.77
2019-03-31T07:01:34.349Z,68.23
2019-03-31T07:04:03.983Z,69.87
2019-03-31T07:06:35.244Z,68.73
2019-03-31T07:09:06.495Z,68.97
2019-03-31T07:11:36.176Z,72.53
2019-03-31T07:14:05.978Z,64.77
2019-03-31T07:16:35.506Z,70.37
2019-03-31T07:19:05.117Z,67.00
2019-03-31T07:21:34.658Z,70.73
2019-03-31T07:24:04.186Z,63.50
2019-03-31T07:26:33.872Z,60.63
2019-03-31T07:29:03.810Z,60.73
2019-03-31T07:31:33.410Z,59.33
2019-03-31T07:34:02.979Z,58.73
2019-03-31T07:36:32.619Z,52.00
2019-03-31T07:39:02.236Z,54.87
2019-03-31T07:41:32.025Z,50.77
2019-03-31T07:44:01.605Z,51.00
2019-03-31T07:46:31.344Z,51.00
2019-03-31T07:49:03.290Z,54.67
2019-03-31T07:51:33.239Z,50.87
2019-03-31T07:54:02.863Z,47.17
2019-03-31T07:56:32.698Z,49.37
2019-03-31T07:59:02.410Z,54.43
2019-03-31T08:01:31.937Z,50.73
2019-03-31T08:04:01.443Z,46.53
2019-03-31T08:06:30.979Z,46.23
2019-03-31T08:09:00.420Z,41.70
2019-03-31T08:11:29.965Z,43.20
2019-03-31T08:13:59.435Z,43.53
2019-03-31T08:16:28.960Z,37.33
2019-03-31T08:18:58.560Z,37.40
2019-03-31T08:21:28.148Z,39.27
2019-03-31T08:23:57.634Z,36.53
2019-03-31T08:26:27.218Z,38.53
2019-03-31T08:29:15.790Z,40.93
2019-03-31T08:31:45.390Z,37.50
2019-03-31T08:34:15.103Z,35.87
2019-03-31T08:36:44.755Z,32.10
2019-03-31T08:39:14.356Z,35.37
2019-03-31T08:41:43.951Z,34.20
2019-03-31T08:44:13.746Z,35.60
2019-03-31T08:46:43.358Z,33.17
2019-03-31T08:49:12.954Z,33.50
2019-03-31T08:51:43.023Z,42.30
2019-03-31T08:54:12.657Z,35.03
2019-03-31T08:56:42.281Z,35.67
2019-03-31T08:59:11.901Z,36.23
2019-03-31T09:01:41.781Z,33.93
2019-03-31T09:04:11.322Z,32.30
2019-03-31T09:06:41.002Z,31.53
2019-03-31T09:09:10.598Z,33.20
2019-03-31T09:11:40.142Z,30.90
2019-03-31T09:14:09.662Z,25.63
2019-03-31T09:16:39.173Z,23.83
2019-03-31T09:19:09.347Z,22.97
2019-03-31T09:21:38.982Z,23.27
2019-03-31T09:24:08.752Z,25.10
2019-03-31T09:26:38.372Z,19.13
2019-03-31T09:29:07.982Z,16.97
2019-03-31T09:31:37.548Z,19.00
2019-03-31T09:34:07.203Z,17.70
2019-03-31T09:36:36.785Z,16.70
2019-03-31T09:39:07.203Z,18.43
2019-03-31T09:41:36.712Z,20.17
2019-03-31T09:44:06.248Z,17.13
2019-03-31T09:46:35.768Z,17.60
2019-03-31T09:49:05.397Z,16.43
2019-03-31T09:51:34.922Z,13.00
2019-03-31T09:54:04.582Z,13.00
2019-03-31T09:56:34.258Z,15.90
2019-03-31T09:59:03.880Z,16.27
2019-03-31T10:01:33.435Z,18.87
2019-03-31T10:04:03.103Z,20.40
2019-03-31T10:06:33.428Z,17.07
2019-03-31T10:09:06.634Z,14.07
2019-03-31T10:11:36.214Z,16.23
2019-03-31T10:14:05.995Z,14.67
2019-03-31T10:16:35.571Z,13.40
2019-03-31T10:19:05.219Z,13.67
2019-03-31T10:21:34.782Z,12.87
2019-03-31T10:24:04.358Z,12.63
2019-03-31T10:26:33.970Z,12.30
2019-03-31T10:29:03.664Z,13.00
2019-03-31T10:31:33.306Z,10.00
2019-03-31T10:34:03.023Z,8.40
2019-03-31T10:36:43.911Z,7.37
2019-03-31T10:39:06.095Z,8.70
2019-03-31T10:41:35.705Z,10.93
2019-03-31T10:44:05.314Z,10.27
2019-03-31T10:46:34.865Z,9.07
2019-03-31T10:49:04.631Z,8.00
2019-03-31T10:51:36.825Z,8.10
2019-03-31T10:54:06.519Z,8.23
2019-03-31T10:56:36.042Z,8.40
2019-03-31T10:59:05.854Z,7.50
2019-03-31T11:01:35.433Z,7.93
2019-03-31T11:04:05.039Z,8.33
2019-03-31T11:06:35.050Z,8.00
2019-03-31T11:09:06.482Z,8.90
2019-03-31T11:11:36.248Z,6.30
2019-03-31T11:14:06.042Z,7.50
2019-03-31T11:16:35.581Z,7.47
2019-03-31T11:19:05.218Z,6.07
2019-03-31T11:21:40.624Z,7.07
2019-03-31T11:24:11.004Z,9.63
2019-03-31T11:26:40.662Z,8.07
2019-03-31T11:29:10.216Z,7.00
2019-03-31T11:31:39.678Z,5.40
2019-03-31T11:34:09.344Z,9.23
2019-03-31T11:36:38.974Z,5.77
2019-03-31T11:39:08.626Z,3.93
2019-03-31T11:41:38.250Z,4.33
2019-03-31T11:44:08.692Z,6.60
2019-03-31T11:46:38.152Z,4.10
2019-03-31T11:49:07.763Z,4.20
2019-03-31T11:51:37.399Z,6.03
2019-03-31T11:54:07.149Z,4.30
2019-03-31T11:56:36.674Z,6.97
2019-03-31T11:59:06.290Z,5.33
2019-03-31T12:01:36.078Z,4.63
2019-03-31T12:04:05.702Z,4.80
2019-03-31T12:06:35.386Z,8.47
2019-03-31T12:09:06.683Z,7.37
2019-03-31T12:11:38.056Z,5.33
2019-03-31T12:14:07.668Z,8.87
2019-03-31T12:16:37.170Z,8.07
2019-03-31T12:19:06.674Z,8.30
2019-03-31T12:21:36.155Z,8.37
2019-03-31T12:24:05.803Z,7.97
2019-03-31T12:26:35.440Z,7.63
2019-03-31T12:29:05.278Z,8.27
2019-03-31T12:31:35.285Z,8.03
2019-03-31T12:34:04.910Z,6.67
2019-03-31T12:36:34.827Z,6.30
2019-03-31T12:39:06.705Z,6.17
2019-03-31T12:41:36.416Z,5.87
2019-03-31T12:44:06.112Z,5.57
2019-03-31T12:46:35.712Z,6.83
2019-03-31T12:49:05.434Z,7.80
2019-03-31T12:51:35.082Z,7.43
2019-03-31T12:54:04.739Z,6.70
2019-03-31T12:56:34.364Z,7.77
2019-03-31T12:59:03.925Z,8.47
2019-03-31T13:01:34.054Z,7.53
2019-03-31T13:04:03.754Z,7.43
2019-03-31T13:06:33.406Z,6.47
2019-03-31T13:09:04.712Z,6.53
2019-03-31T13:11:34.418Z,5.10
2019-03-31T13:14:04.171Z,5.50
2019-03-31T13:16:33.684Z,5.43
2019-03-31T13:19:03.220Z,6.07
2019-03-31T13:21:32.928Z,6.20
2019-03-31T13:24:02.467Z,6.47
2019-03-31T13:26:32.160Z,5.43
2019-03-31T13:29:01.733Z,5.47
2019-03-31T13:31:31.474Z,3.87
2019-03-31T13:34:01.045Z,3.93
2019-03-31T13:36:30.646Z,5.77
2019-03-31T13:39:00.304Z,4.03
2019-03-31T13:41:30.257Z,4.93
2019-03-31T13:43:59.826Z,4.00
2019-03-31T13:46:29.405Z,5.40
2019-03-31T13:48:58.896Z,5.23
2019-03-31T13:51:28.517Z,3.37
2019-03-31T13:53:58.117Z,6.33
2019-03-31T13:56:28.235Z,3.53
2019-03-31T13:58:58.379Z,4.30
2019-03-31T14:01:27.909Z,4.50
2019-03-31T14:03:57.707Z,3.97
2019-03-31T14:06:27.336Z,3.50
2019-03-31T14:08:56.861Z,2.97
2019-03-31T14:11:26.545Z,3.50
2019-03-31T14:13:56.269Z,2.20
2019-03-31T14:16:28.957Z,3.63
2019-03-31T14:18:57.032Z,3.00
2019-03-31T14:21:26.552Z,2.23
2019-03-31T14:23:56.138Z,4.93
2019-03-31T14:26:25.718Z,3.03
2019-03-31T14:28:55.547Z,4.60
2019-03-31T14:31:30.000Z,3.07
2019-03-31T14:34:00.826Z,6.00
2019-03-31T14:36:30.448Z,4.63
2019-03-31T14:39:00.056Z,2.80
2019-03-31T14:41:29.879Z,4.23
2019-03-31T14:43:59.590Z,3.93
2019-03-31T14:46:29.103Z,4.50
2019-03-31T14:48:59.316Z,17.87
2019-03-31T14:51:28.927Z,3.60
2019-03-31T14:53:58.390Z,5.10
2019-03-31T14:56:28.051Z,3.07
2019-03-31T14:58:57.762Z,3.90
2019-03-31T15:01:27.403Z,4.20
2019-03-31T15:03:57.058Z,4.07
2019-03-31T15:06:26.636Z,3.80
2019-03-31T15:08:56.455Z,4.47
2019-03-31T15:11:26.429Z,5.73
2019-03-31T15:13:58.185Z,4.40
2019-03-31T15:16:28.730Z,5.67
2019-03-31T15:18:58.336Z,4.13
2019-03-31T15:21:28.522Z,5.53
2019-03-31T15:23:58.094Z,6.07
2019-03-31T15:26:27.813Z,3.93
2019-03-31T15:28:57.515Z,3.80
2019-03-31T15:31:27.233Z,5.07
2019-03-31T15:33:57.079Z,6.00
2019-03-31T15:36:27.076Z,6.20
2019-03-31T15:39:08.271Z,5.03
2019-03-31T15:41:28.115Z,4.43
2019-03-31T15:43:57.907Z,3.10
2019-03-31T15:46:27.850Z,3.17
2019-03-31T15:48:59.337Z,4.47
2019-03-31T15:51:28.985Z,5.40
2019-03-31T15:53:58.811Z,3.27
2019-03-31T15:56:30.247Z,3.90
2019-03-31T15:59:00.081Z,3.27
2019-03-31T16:01:29.904Z,4.70
2019-03-31T16:04:00.048Z,3.37
2019-03-31T16:06:30.276Z,6.87
2019-03-31T16:08:59.743Z,3.87
2019-03-31T16:11:28.991Z,3.23
2019-03-31T16:13:58.186Z,3.33
2019-03-31T16:16:30.475Z,2.70
2019-03-31T16:18:58.633Z,6.20
2019-03-31T16:21:28.102Z,2.87
2019-03-31T16:23:57.865Z,3.97
2019-03-31T16:26:27.068Z,4.93
2019-03-31T16:28:56.398Z,4.37
2019-03-31T16:31:25.694Z,3.33
2019-03-31T16:33:55.021Z,3.73
2019-03-31T16:36:24.250Z,5.57
2019-03-31T16:38:53.791Z,3.33
2019-03-31T16:41:23.840Z,5.53
2019-03-31T16:43:53.370Z,3.63
2019-03-31T16:46:22.785Z,3.33
2019-03-31T16:48:51.966Z,3.60
2019-03-31T16:51:21.120Z,2.60
2019-03-31T16:53:50.241Z,2.90
2019-03-31T16:56:19.385Z,4.43
2019-03-31T16:58:48.599Z,3.47
2019-03-31T17:01:17.631Z,2.50
2019-03-31T17:03:46.872Z,4.30
2019-03-31T17:06:15.951Z,5.67
2019-03-31T17:08:45.162Z,5.40
2019-03-31T17:11:14.239Z,3.47
2019-03-31T17:13:43.374Z,2.77
2019-03-31T17:16:15.367Z,4.67
2019-03-31T17:18:43.275Z,3.13
2019-03-31T17:21:12.595Z,8.03
2019-03-31T17:23:41.758Z,4.33
2019-03-31T17:26:10.902Z,4.33
2019-03-31T17:28:39.930Z,3.30
2019-03-31T17:31:09.149Z,2.67
2019-03-31T17:33:38.925Z,3.83
2019-03-31T17:36:11.329Z,3.43
2019-03-31T17:38:40.506Z,3.10
2019-03-31T17:41:09.834Z,2.70
2019-03-31T17:43:39.234Z,2.60
2019-03-31T17:46:08.348Z,4.53
2019-03-31T17:48:38.174Z,4.87
2019-03-31T17:51:08.245Z,4.13
2019-03-31T17:53:37.611Z,2.27
2019-03-31T17:56:06.765Z,2.60
2019-03-31T17:58:36.646Z,3.43
2019-03-31T18:01:06.378Z,2.83
2019-03-31T18:03:35.668Z,2.47
2019-03-31T18:06:05.352Z,3.20
2019-03-31T18:08:34.447Z,5.47
2019-03-31T18:11:03.932Z,2.80
2019-03-31T18:13:33.133Z,2.90
2019-03-31T18:16:02.293Z,2.20
2019-03-31T18:18:31.444Z,3.33
2019-03-31T18:21:00.591Z,30.27
2019-03-31T18:23:29.750Z,6.97
2019-03-31T18:25:59.201Z,3.47
2019-03-31T18:28:28.356Z,2.73
2019-03-31T18:30:57.519Z,4.80
2019-03-31T18:33:27.615Z,4.60
2019-03-31T18:35:56.737Z,3.30
2019-03-31T18:38:26.032Z,3.83
2019-03-31T18:40:55.158Z,8.10
2019-03-31T18:43:24.458Z,2.90
2019-03-31T18:45:53.612Z,2.53
2019-03-31T18:48:22.724Z,2.53
2019-03-31T18:50:51.812Z,4.87
2019-03-31T18:53:33.104Z,9.90
2019-03-31T18:56:15.713Z,4.37
2019-03-31T18:59:03.885Z,3.87
2019-03-31T19:01:40.216Z,2.77
2019-03-31T19:04:29.936Z,2.77
2019-03-31T19:07:09.129Z,5.30
2019-03-31T19:09:54.678Z,3.53
2019-03-31T19:12:46.079Z,3.97
2019-03-31T19:15:37.187Z,5.07
2019-03-31T19:18:14.465Z,3.50
2019-03-31T19:21:11.258Z,5.07
2019-03-31T19:23:47.072Z,5.40
2019-03-31T19:26:47.713Z,4.07
2019-03-31T19:29:27.141Z,4.47
2019-03-31T19:32:18.591Z,3.13
2019-03-31T19:35:19.079Z,4.47
2019-03-31T19:38:00.992Z,3.83
2019-03-31T19:41:03.265Z,5.33
2019-03-31T19:43:54.354Z,5.27
2019-03-31T19:46:42.469Z,4.20
2019-03-31T19:49:30.664Z,4.40
2019-03-31T19:52:29.177Z,5.23
2019-03-31T19:55:13.817Z,4.83
2019-03-31T19:58:01.609Z,2.63
2019-03-31T20:00:48.886Z,3.13
2019-03-31T20:03:47.881Z,5.10
2019-03-31T20:06:41.592Z,3.93
2019-03-31T20:09:39.720Z,2.60
2019-03-31T20:12:31.036Z,4.43
2019-03-31T20:15:20.695Z,2.80
2019-03-31T20:18:01.547Z,3.23
2019-03-31T20:20:40.716Z,2.93
2019-03-31T20:23:41.264Z,3.33
2019-03-31T20:26:28.164Z,2.83
2019-03-31T20:29:03.485Z,4.20
2019-03-31T20:31:54.947Z,3.70
2019-03-31T20:34:33.182Z,3.50
2019-03-31T20:37:13.202Z,2.77
2019-03-31T20:39:57.135Z,4.87
2019-03-31T20:42:41.499Z,2.47
2019-03-31T20:45:12.153Z,6.73
2019-03-31T20:47:41.604Z,5.30
2019-03-31T20:50:11.018Z,6.23
2019-03-31T20:52:40.488Z,2.93
2019-03-31T20:55:16.358Z,2.80
2019-03-31T20:57:40.948Z,2.37
2019-03-31T21:00:11.111Z,6.27
2019-03-31T21:02:40.611Z,3.47
2019-03-31T21:05:10.171Z,5.53
2019-03-31T21:07:39.916Z,4.97
2019-03-31T21:10:09.415Z,4.60
2019-03-31T21:12:38.789Z,7.37
2019-03-31T21:15:08.379Z,3.40
2019-03-31T21:17:37.915Z,4.93
2019-03-31T21:20:07.529Z,3.30
2019-03-31T21:22:37.250Z,3.97
2019-03-31T21:25:06.995Z,3.70
2019-03-31T21:27:36.346Z,4.40
2019-03-31T21:30:06.297Z,2.97
2019-03-31T21:32:35.824Z,3.90
2019-03-31T21:35:05.424Z,4.03
2019-03-31T21:37:34.769Z,4.43
2019-03-31T21:40:04.040Z,3.80
2019-03-31T21:42:33.373Z,4.73
2019-03-31T21:45:03.256Z,3.63
2019-03-31T21:47:32.499Z,4.00
2019-03-31T21:50:01.867Z,3.20
2019-03-31T21:52:33.681Z,3.67
2019-03-31T22:04:55.490Z,3.40
2019-03-31T22:07:27.502Z,4.80
2019-03-31T22:09:56.911Z,4.47
2019-03-31T22:12:26.669Z,4.80
2019-03-31T22:14:57.925Z,5.43
2019-03-31T22:17:27.184Z,7.77
2019-03-31T22:19:56.381Z,5.97
2019-03-31T22:22:25.914Z,2.60
2019-03-31T22:24:55.375Z,5.00
2019-03-31T22:27:24.600Z,4.47
2019-03-31T22:29:53.836Z,8.57
2019-03-31T22:32:23.143Z,5.13
2019-03-31T22:34:54.301Z,5.57
2019-03-31T22:37:23.591Z,4.33
2019-03-31T22:39:52.924Z,3.83
2019-03-31T22:42:22.171Z,5.93
2019-03-31T22:44:51.445Z,5.13
2019-03-31T22:47:20.786Z,4.03
2019-03-31T22:49:50.132Z,4.30
2019-03-31T22:52:19.425Z,6.07
2019-03-31T22:54:49.301Z,5.30
2019-03-31T22:57:18.636Z,5.13
2019-03-31T22:59:47.974Z,5.83
2019-03-31T23:02:17.390Z,3.90
2019-03-31T23:04:46.674Z,5.97
2019-03-31T23:07:16.001Z,3.27
2019-03-31T23:09:45.940Z,4.60
2019-03-31T23:12:15.219Z,3.17
2019-03-31T23:14:44.761Z,5.37
2019-03-31T23:17:14.028Z,6.37
2019-03-31T23:19:43.820Z,3.77
2019-03-31T23:22:13.140Z,5.80
2019-03-31T23:24:42.528Z,5.93
2019-03-31T23:27:11.868Z,5.13
2019-03-31T23:29:41.038Z,2.60
2019-03-31T23:32:10.317Z,4.00
2019-03-31T23:34:40.555Z,4.07
2019-03-31T23:37:09.818Z,4.03
2019-03-31T23:39:39.008Z,3.57
2019-03-31T23:42:08.265Z,3.70
2019-03-31T23:44:37.516Z,5.00
2019-03-31T23:47:06.898Z,3.50
2019-03-31T23:49:36.212Z,4.27
2019-03-31T23:52:05.486Z,5.00
2019-03-31T23:54:36.455Z,4.77
2019-03-31T23:57:05.770Z,4.83
2019-03-31T23:59:35.122Z,6.60
